createdAt,value
2022-10-18T00:01:18.128Z,102211.22
2022-10-18T00:03:44.531Z,102215.63
2022-10-18T00:06:11.070Z,102211.03
2022-10-18T00:08:38.351Z,102211.88
2022-10-18T00:11:05.334Z,102219.69
2022-10-18T00:13:32.108Z,102224.78
2022-10-18T00:15:59.870Z,102212.97
2022-10-18T00:18:26.658Z,102231.22
2022-10-18T00:20:56.834Z,102234.78
2022-10-18T00:23:23.165Z,102231.41
2022-10-18T00:25:49.498Z,102237.97
2022-10-18T00:28:15.840Z,102237.66
2022-10-18T00:30:42.222Z,102236.44
2022-10-18T00:33:08.655Z,102235.47
2022-10-18T00:35:35.408Z,102232.56
2022-10-18T00:38:01.742Z,102230.69
2022-10-18T00:40:28.129Z,102227.09
2022-10-18T00:42:54.481Z,102229.81
2022-10-18T00:45:22.144Z,102237.00
2022-10-18T00:47:51.240Z,102240.56
2022-10-18T00:50:19.144Z,102229.66
2022-10-18T00:52:54.036Z,102235.97
2022-10-18T00:55:20.681Z,102240.44
2022-10-18T00:57:47.390Z,102252.34
2022-10-18T01:00:14.233Z,102251.50
2022-10-18T01:02:41.949Z,102254.41
2022-10-18T01:05:08.557Z,102248.94
2022-10-18T01:07:37.703Z,102249.78
2022-10-18T01:10:22.943Z,102254.22
2022-10-18T01:13:08.186Z,102256.97
2022-10-18T01:15:50.528Z,102252.34
2022-10-18T01:18:24.758Z,102251.50
2022-10-18T01:20:51.090Z,102249.78
2022-10-18T01:23:17.551Z,102251.66
2022-10-18T01:26:02.597Z,102259.69
2022-10-18T01:28:38.722Z,102262.41
2022-10-18T01:31:10.017Z,102254.22
2022-10-18T01:33:36.347Z,102254.41
2022-10-18T01:36:05.856Z,102245.34
2022-10-18T01:38:33.914Z,102247.06
2022-10-18T01:41:02.236Z,102246.22
2022-10-18T01:43:30.043Z,102248.94
2022-10-18T01:45:57.689Z,102248.78
2022-10-18T01:48:24.865Z,102250.63
2022-10-18T01:50:51.990Z,102242.44
2022-10-18T01:53:22.493Z,102242.44
2022-10-18T01:55:54.550Z,102241.44
2022-10-18T01:58:24.867Z,102242.44
2022-10-18T02:00:57.262Z,102239.91
2022-10-18T02:03:26.090Z,102246.22
2022-10-18T02:06:01.821Z,102248.09
2022-10-18T02:08:30.849Z,102245.97
2022-10-18T02:11:03.286Z,102257.22
2022-10-18T02:13:36.128Z,102258.94
2022-10-18T02:16:06.897Z,102246.81
2022-10-18T02:18:38.870Z,102238.63
2022-10-18T02:21:08.128Z,102234.91
2022-10-18T02:23:34.684Z,102234.06
2022-10-18T02:26:01.150Z,102233.19
2022-10-18T02:28:27.733Z,102236.25
2022-10-18T02:31:09.397Z,102237.97
2022-10-18T02:33:39.863Z,102257.91
2022-10-18T02:36:09.813Z,102247.00
2022-10-18T02:38:37.543Z,102244.63
2022-10-18T02:41:03.904Z,102249.09
2022-10-18T02:43:30.251Z,102234.44
2022-10-18T02:45:56.607Z,102236.13
2022-10-18T02:48:22.971Z,102230.50
2022-10-18T02:50:49.388Z,102237.72
2022-10-18T02:53:15.728Z,102240.44
2022-10-18T02:55:42.082Z,102249.47
2022-10-18T02:58:08.459Z,102241.28
2022-10-18T03:00:34.792Z,102238.69
2022-10-18T03:03:01.139Z,102245.19
2022-10-18T03:05:27.506Z,102245.13
2022-10-18T03:07:56.210Z,102255.66
2022-10-18T03:10:22.590Z,102254.25
2022-10-18T03:12:48.913Z,102260.56
2022-10-18T03:15:15.307Z,102261.97
2022-10-18T03:17:41.651Z,102270.34
2022-10-18T03:20:08.349Z,102265.56
2022-10-18T03:22:34.714Z,102270.16
2022-10-18T03:25:01.053Z,102260.66
2022-10-18T03:27:27.414Z,102267.81
2022-10-18T03:29:53.922Z,102267.66
2022-10-18T03:32:20.271Z,102250.09
2022-10-18T03:34:46.608Z,102257.28
2022-10-18T03:37:12.946Z,102252.63
2022-10-18T03:39:39.380Z,102266.56
2022-10-18T03:42:05.711Z,102276.47
2022-10-18T03:44:32.077Z,102274.59
2022-10-18T03:46:58.424Z,102271.00
2022-10-18T03:49:24.794Z,102283.81
2022-10-18T03:51:51.144Z,102289.09
2022-10-18T03:54:17.539Z,102281.44
2022-10-18T03:56:43.908Z,102274.66
2022-10-18T03:59:10.320Z,102283.56
2022-10-18T04:01:36.716Z,102277.09
2022-10-18T04:04:03.127Z,102284.25
2022-10-18T04:06:29.551Z,102276.06
2022-10-18T04:08:55.911Z,102280.38
2022-10-18T04:11:22.244Z,102283.09
2022-10-18T04:13:48.689Z,102292.13
2022-10-18T04:16:15.123Z,102290.25
2022-10-18T04:18:41.551Z,102277.63
2022-10-18T04:21:08.016Z,102285.66
2022-10-18T04:23:37.877Z,102292.84
2022-10-18T04:26:05.334Z,102299.09
2022-10-18T04:28:32.959Z,102303.47
2022-10-18T04:30:59.495Z,102303.94
2022-10-18T04:33:25.910Z,102295.88
2022-10-18T04:35:53.309Z,102297.75
2022-10-18T04:38:19.976Z,102295.88
2022-10-18T04:40:46.735Z,102294.72
2022-10-18T04:43:13.089Z,102302.44
2022-10-18T04:45:39.425Z,102299.56
2022-10-18T04:48:05.939Z,102298.25
2022-10-18T04:50:32.370Z,102282.53
2022-10-18T04:52:58.731Z,102273.19
2022-10-18T04:55:25.143Z,102274.72
2022-10-18T04:57:52.496Z,102280.19
2022-10-18T05:00:18.980Z,102273.75
2022-10-18T05:02:45.384Z,102278.19
2022-10-18T05:05:14.052Z,102282.78
2022-10-18T05:07:40.718Z,102273.75
2022-10-18T05:10:07.578Z,102285.50
2022-10-18T05:12:34.370Z,102295.59
2022-10-18T05:15:00.932Z,102290.13
2022-10-18T05:17:27.270Z,102295.59
2022-10-18T05:19:53.674Z,102297.28
2022-10-18T05:22:20.073Z,102296.56
2022-10-18T05:24:46.405Z,102281.94
2022-10-18T05:27:12.838Z,102265.56
2022-10-18T05:29:39.247Z,102265.38
2022-10-18T05:32:05.720Z,102273.56
2022-10-18T05:34:32.233Z,102264.53
2022-10-18T05:36:59.311Z,102265.38
2022-10-18T05:39:25.726Z,102265.38
2022-10-18T05:41:52.181Z,102269.97
2022-10-18T05:44:18.590Z,102264.53
2022-10-18T05:46:44.969Z,102266.41
2022-10-18T05:49:14.886Z,102260.09
2022-10-18T05:51:41.241Z,102261.94
2022-10-18T05:54:07.762Z,102275.69
2022-10-18T05:56:34.197Z,102280.47
2022-10-18T05:59:00.638Z,102288.09
2022-10-18T06:01:27.074Z,102282.78
2022-10-18T06:03:53.427Z,102289.28
2022-10-18T06:06:20.514Z,102284.84
2022-10-18T06:08:49.084Z,102276.66
2022-10-18T06:11:16.275Z,102286.38
2022-10-18T06:13:43.551Z,102287.78
2022-10-18T06:16:10.486Z,102281.88
2022-10-18T06:18:37.042Z,102277.63
2022-10-18T06:21:03.523Z,102287.53
2022-10-18T06:23:30.052Z,102290.97
2022-10-18T06:26:04.159Z,102285.50
2022-10-18T06:28:30.646Z,102284.66
2022-10-18T06:30:57.715Z,102282.06
2022-10-18T06:33:24.357Z,102276.59
2022-10-18T06:35:54.631Z,102273.19
2022-10-18T06:38:20.967Z,102288.38
2022-10-18T06:40:48.063Z,102276.47
2022-10-18T06:43:20.956Z,102275.75
2022-10-18T06:45:48.265Z,102275.59
2022-10-18T06:48:14.817Z,102275.06
2022-10-18T06:50:41.286Z,102271.81
2022-10-18T06:53:09.131Z,102272.97
2022-10-18T06:55:36.046Z,102267.81
2022-10-18T06:58:02.534Z,102271.38
2022-10-18T07:00:29.011Z,102272.28
2022-10-18T07:02:56.363Z,102275.00
2022-10-18T07:05:22.894Z,102268.84
2022-10-18T07:07:52.914Z,102278.72
2022-10-18T07:10:22.458Z,102276.00
2022-10-18T07:12:48.889Z,102276.16
2022-10-18T07:15:15.383Z,102276.16
2022-10-18T07:17:41.816Z,102277.03
2022-10-18T07:20:08.287Z,102278.91
2022-10-18T07:22:34.634Z,102290.66
2022-10-18T07:25:01.052Z,102295.09
2022-10-18T07:27:27.566Z,102310.50
2022-10-18T07:29:54.006Z,102305.88
2022-10-18T07:32:21.065Z,102311.34
2022-10-18T07:34:47.450Z,102313.22
2022-10-18T07:37:13.880Z,102317.78
2022-10-18T07:39:40.262Z,102321.72
2022-10-18T07:42:06.691Z,102316.25
2022-10-18T07:44:33.137Z,102314.53
2022-10-18T07:46:59.703Z,102318.44
2022-10-18T07:49:26.084Z,102324.19
2022-10-18T07:51:52.416Z,102325.38
2022-10-18T07:54:18.867Z,102338.00
2022-10-18T07:56:45.193Z,102340.91
2022-10-18T07:59:12.151Z,102336.31
2022-10-18T08:01:38.715Z,102339.03
2022-10-18T08:04:07.910Z,102344.31
2022-10-18T08:06:36.196Z,102340.44
2022-10-18T08:09:02.788Z,102337.72
2022-10-18T08:11:29.239Z,102344.16
2022-10-18T08:13:55.609Z,102346.75
2022-10-18T08:16:23.466Z,102339.53
2022-10-18T08:18:50.011Z,102346.75
2022-10-18T08:21:17.263Z,102342.16
2022-10-18T08:23:43.819Z,102339.53
2022-10-18T08:26:11.741Z,102337.00
2022-10-18T08:28:38.689Z,102338.69
2022-10-18T08:31:06.391Z,102334.09
2022-10-18T08:33:33.324Z,102327.78
2022-10-18T08:36:00.944Z,102323.19
2022-10-18T08:38:31.412Z,102319.47
2022-10-18T08:41:21.240Z,102317.88
2022-10-18T08:43:56.302Z,102323.19
2022-10-18T08:46:22.797Z,102317.72
2022-10-18T08:48:51.828Z,102315.16
2022-10-18T08:51:35.174Z,102320.44
2022-10-18T08:54:05.006Z,102317.72
2022-10-18T08:56:33.314Z,102323.19
2022-10-18T08:59:02.937Z,102317.72
2022-10-18T09:01:41.814Z,102322.19
2022-10-18T09:04:13.944Z,102323.19
2022-10-18T09:06:55.785Z,102320.44
2022-10-18T09:09:34.609Z,102312.25
2022-10-18T09:12:07.077Z,102327.66
2022-10-18T09:14:39.577Z,102333.09
2022-10-18T09:17:22.008Z,102329.66
2022-10-18T09:19:48.544Z,102333.09
2022-10-18T09:22:18.094Z,102323.34
2022-10-18T09:25:13.633Z,102319.59
2022-10-18T09:28:00.478Z,102318.44
2022-10-18T09:30:49.788Z,102323.19
2022-10-18T09:33:17.244Z,102325.78
2022-10-18T09:35:48.842Z,102323.03
2022-10-18T09:38:19.071Z,102325.78
2022-10-18T09:40:57.862Z,102325.78
2022-10-18T09:43:27.738Z,102326.63
2022-10-18T09:45:55.510Z,102318.75
2022-10-18T09:48:21.926Z,102326.63
2022-10-18T09:50:55.880Z,102332.94
2022-10-18T09:53:25.450Z,102333.97
2022-10-18T09:56:01.076Z,102333.97
2022-10-18T09:58:33.818Z,102338.38
2022-10-18T10:01:00.383Z,102335.66
2022-10-18T10:03:26.914Z,102333.78
2022-10-18T10:06:16.557Z,102328.31
2022-10-18T10:08:44.077Z,102308.38
2022-10-18T10:11:29.271Z,102303.94
2022-10-18T10:16:47.143Z,102311.28
2022-10-18T10:19:22.524Z,102318.44
2022-10-18T10:21:50.409Z,102317.41
2022-10-18T10:24:22.831Z,102315.53
2022-10-18T10:26:50.954Z,102313.84
2022-10-18T10:29:44.431Z,102311.94
2022-10-18T10:32:13.138Z,102319.28
2022-10-18T10:34:43.877Z,102321.16
2022-10-18T10:37:23.625Z,102311.94
2022-10-18T10:40:20.324Z,102315.72
2022-10-18T10:43:00.016Z,102312.13
2022-10-18T10:45:38.094Z,102308.38
2022-10-18T10:48:06.868Z,102301.88
2022-10-18T10:50:46.785Z,102309.22
2022-10-18T10:53:32.198Z,102305.66
2022-10-18T10:55:59.232Z,102309.41
2022-10-18T10:58:27.204Z,102310.25
2022-10-18T11:00:53.675Z,102307.34
2022-10-18T11:03:30.033Z,102295.56
2022-10-18T11:05:58.748Z,102300.19
2022-10-18T11:08:40.144Z,102294.56
2022-10-18T11:11:30.585Z,102288.41
2022-10-18T11:14:21.065Z,102292.00
2022-10-18T11:16:54.043Z,102290.13
2022-10-18T11:19:29.530Z,102290.97
2022-10-18T11:21:56.743Z,102286.53
2022-10-18T11:24:23.633Z,102295.75
2022-10-18T11:26:58.347Z,102296.59
2022-10-18T11:29:24.800Z,102297.47
2022-10-18T11:32:10.451Z,102284.66
2022-10-18T11:34:49.153Z,102279.19
2022-10-18T11:37:34.541Z,102279.19
2022-10-18T11:40:23.289Z,102274.75
2022-10-18T11:42:52.621Z,102268.47
2022-10-18T11:45:25.953Z,102250.22
2022-10-18T11:48:11.336Z,102240.13
2022-10-18T11:50:45.048Z,102233.84
2022-10-18T11:53:20.286Z,102239.28
2022-10-18T11:55:55.874Z,102251.91
2022-10-18T11:58:41.085Z,102243.03
2022-10-18T12:01:28.566Z,102240.31
2022-10-18T12:04:02.624Z,102245.78
2022-10-18T12:06:39.209Z,102241.16
2022-10-18T12:09:25.904Z,102226.66
2022-10-18T12:11:56.108Z,102226.66
2022-10-18T12:14:29.190Z,102221.22
2022-10-18T12:17:27.880Z,102223.75
2022-10-18T12:19:46.403Z,102225.66
2022-10-18T12:22:21.595Z,102224.78
2022-10-18T12:24:48.015Z,102225.66
2022-10-18T12:27:16.018Z,102212.47
2022-10-18T12:29:50.287Z,102224.94
2022-10-18T12:32:20.465Z,102219.34
2022-10-18T12:34:49.339Z,102230.38
2022-10-18T12:37:21.781Z,102227.53
2022-10-18T12:40:09.056Z,102218.63
2022-10-18T12:42:42.093Z,102227.53
2022-10-18T12:45:27.110Z,102227.66
2022-10-18T12:47:54.183Z,102219.47
2022-10-18T12:50:29.416Z,102219.47
2022-10-18T12:53:14.623Z,102226.66
2022-10-18T12:58:15.907Z,102218.47
2022-10-18T13:00:42.238Z,102221.03
2022-10-18T13:03:11.838Z,102216.75
2022-10-18T13:05:55.853Z,102223.94
2022-10-18T13:08:29.066Z,102227.53
2022-10-18T13:11:01.430Z,102230.25
2022-10-18T13:13:39.668Z,102229.41
2022-10-18T13:16:13.511Z,102226.97
2022-10-18T13:18:59.636Z,102227.81
2022-10-18T13:21:44.893Z,102229.69
2022-10-18T13:24:26.733Z,102219.81
2022-10-18T13:27:18.080Z,102219.94
2022-10-18T13:30:04.961Z,102216.38
2022-10-18T13:32:31.654Z,102218.25
2022-10-18T13:34:58.289Z,102225.41
2022-10-18T13:37:25.633Z,102217.22
2022-10-18T13:40:11.930Z,102209.22
2022-10-18T13:42:38.330Z,102218.41
2022-10-18T13:45:23.576Z,102216.53
2022-10-18T13:47:49.997Z,102214.84
2022-10-18T13:50:22.278Z,102213.25
2022-10-18T13:52:57.502Z,102219.44
2022-10-18T13:55:42.808Z,102215.81
2022-10-18T13:58:34.416Z,102219.56
2022-10-18T14:01:19.318Z,102228.78
2022-10-18T14:03:58.862Z,102229.81
2022-10-18T14:06:27.251Z,102239.88
2022-10-18T14:09:03.348Z,102238.00
2022-10-18T14:11:48.058Z,102240.72
2022-10-18T14:14:14.389Z,102247.03
2022-10-18T14:16:48.923Z,102237.13
2022-10-18T14:19:30.441Z,102240.72
2022-10-18T14:22:04.086Z,102243.44
2022-10-18T14:24:30.942Z,102249.75
2022-10-18T14:27:11.350Z,102249.91
2022-10-18T14:29:37.934Z,102240.72
2022-10-18T14:32:08.030Z,102240.72
2022-10-18T14:34:34.643Z,102239.88
2022-10-18T14:37:01.064Z,102239.88
2022-10-18T14:39:29.906Z,102236.25
2022-10-18T14:41:57.343Z,102232.69
2022-10-18T14:44:28.438Z,102245.47
2022-10-18T14:47:00.882Z,102241.88
2022-10-18T14:49:27.579Z,102247.50
2022-10-18T14:51:55.929Z,102247.34
2022-10-18T14:54:32.098Z,102258.72
2022-10-18T14:57:00.062Z,102253.25
2022-10-18T14:59:32.339Z,102253.94
2022-10-18T15:02:00.151Z,102251.09
2022-10-18T15:04:33.238Z,102251.94
2022-10-18T15:07:07.321Z,102254.50
2022-10-18T15:09:34.882Z,102241.03
2022-10-18T15:12:03.365Z,102243.59
2022-10-18T15:14:30.079Z,102235.56
2022-10-18T15:16:59.960Z,102240.84
2022-10-18T15:19:31.599Z,102239.16
2022-10-18T15:22:19.889Z,102234.53
2022-10-18T15:24:44.551Z,102236.41
2022-10-18T15:27:10.979Z,102243.75
2022-10-18T15:29:37.924Z,102249.38
2022-10-18T15:32:12.818Z,102248.50
2022-10-18T15:34:39.337Z,102245.78
2022-10-18T15:37:15.913Z,102246.66
2022-10-18T15:39:42.402Z,102245.78
2022-10-18T15:42:28.714Z,102242.19
2022-10-18T15:44:55.130Z,102253.09
2022-10-18T15:47:23.546Z,102246.78
2022-10-18T15:49:56.095Z,102259.41
2022-10-18T15:52:38.855Z,102250.53
2022-10-18T15:55:24.460Z,102248.84
2022-10-18T15:57:50.849Z,102243.38
2022-10-18T16:00:19.603Z,102250.00
2022-10-18T16:02:46.377Z,102254.44
2022-10-18T16:05:20.703Z,102260.06
2022-10-18T16:07:51.833Z,102258.34
2022-10-18T16:10:18.286Z,102259.19
2022-10-18T16:12:44.712Z,102260.22
2022-10-18T16:15:11.188Z,102274.72
2022-10-18T16:17:37.540Z,102270.28
2022-10-18T16:20:04.158Z,102266.66
2022-10-18T16:22:33.400Z,102270.41
2022-10-18T16:25:02.694Z,102279.44
2022-10-18T16:27:29.102Z,102280.47
2022-10-18T16:29:55.459Z,102278.75
2022-10-18T16:32:21.910Z,102285.06
2022-10-18T16:34:48.311Z,102272.47
2022-10-18T16:37:14.706Z,102289.69
2022-10-18T16:39:41.103Z,102274.34
2022-10-18T16:42:07.435Z,102269.88
2022-10-18T16:44:33.908Z,102281.63
2022-10-18T16:47:00.463Z,102283.50
2022-10-18T16:49:27.276Z,102283.66
2022-10-18T16:51:54.078Z,102291.00
2022-10-18T16:54:20.702Z,102286.41
2022-10-18T16:56:47.784Z,102288.41
2022-10-18T16:59:28.013Z,102282.94
2022-10-18T17:01:54.495Z,102283.97
2022-10-18T17:04:20.873Z,102289.44
2022-10-18T17:06:49.012Z,102293.84
2022-10-18T17:09:15.937Z,102295.91
2022-10-18T17:11:42.386Z,102297.78
2022-10-18T17:14:08.769Z,102294.19
2022-10-18T17:16:36.732Z,102293.34
2022-10-18T17:19:04.814Z,102303.38
2022-10-18T17:21:31.508Z,102292.63
2022-10-18T17:24:05.938Z,102300.81
2022-10-18T17:26:32.820Z,102306.41
2022-10-18T17:29:00.710Z,102313.75
2022-10-18T17:31:27.572Z,102313.75
2022-10-18T17:33:55.279Z,102320.19
2022-10-18T17:36:21.789Z,102310.31
2022-10-18T17:38:51.762Z,102309.44
2022-10-18T17:41:18.221Z,102313.19
2022-10-18T17:43:44.703Z,102317.78
2022-10-18T17:46:12.182Z,102319.66
2022-10-18T17:48:38.611Z,102321.38
2022-10-18T17:51:08.929Z,102320.63
2022-10-18T17:53:35.393Z,102322.50
2022-10-18T17:56:03.057Z,102316.19
2022-10-18T17:58:29.602Z,102313.47
2022-10-18T18:00:55.982Z,102313.47
2022-10-18T18:03:22.553Z,102315.34
2022-10-18T18:05:49.064Z,102326.41
2022-10-18T18:08:16.299Z,102322.78
2022-10-18T18:10:42.821Z,102330.13
2022-10-18T18:13:10.157Z,102328.25
2022-10-18T18:15:36.514Z,102341.19
2022-10-18T18:18:02.951Z,102332.16
2022-10-18T18:20:29.353Z,102322.09
2022-10-18T18:22:55.760Z,102329.44
2022-10-18T18:25:22.176Z,102325.13
2022-10-18T18:27:48.607Z,102333.31
2022-10-18T18:30:17.792Z,102326.16
2022-10-18T18:32:44.385Z,102326.16
2022-10-18T18:35:10.853Z,102342.50
2022-10-18T18:37:37.196Z,102342.50
2022-10-18T18:40:03.855Z,102352.56
2022-10-18T18:42:30.435Z,102341.78
2022-10-18T18:44:57.129Z,102340.06
2022-10-18T18:47:23.750Z,102347.41
2022-10-18T18:49:51.742Z,102343.81
2022-10-18T18:52:18.148Z,102346.53
2022-10-18T18:54:45.022Z,102344.00
2022-10-18T18:57:11.432Z,102334.06
2022-10-18T18:59:38.007Z,102338.53
2022-10-18T19:02:04.450Z,102328.47
2022-10-18T19:04:30.853Z,102333.22
2022-10-18T19:06:57.305Z,102332.53
2022-10-18T19:09:23.938Z,102332.53
2022-10-18T19:11:54.862Z,102339.00
2022-10-18T19:16:50.146Z,102339.00
2022-10-18T19:19:18.340Z,102336.25
2022-10-18T19:21:49.214Z,102348.03
2022-10-18T19:24:15.953Z,102354.34
2022-10-18T19:26:47.536Z,102346.28
2022-10-18T19:29:14.149Z,102337.25
2022-10-18T19:31:41.262Z,102352.63
2022-10-18T19:34:09.068Z,102343.56
2022-10-18T19:36:36.131Z,102346.28
2022-10-18T19:39:03.174Z,102352.75
2022-10-18T19:41:29.658Z,102351.91
2022-10-18T19:43:56.536Z,102352.75
2022-10-18T19:46:23.330Z,102356.34
2022-10-18T19:48:50.105Z,102361.78
2022-10-18T19:51:20.307Z,102356.34
2022-10-18T19:53:50.471Z,102366.38
2022-10-18T19:56:18.912Z,102360.06
2022-10-18T19:58:45.763Z,102368.09
2022-10-18T20:01:12.248Z,102369.09
2022-10-18T20:03:38.773Z,102373.53
2022-10-18T20:06:05.287Z,102377.28
2022-10-18T20:08:32.513Z,102373.88
2022-10-18T20:11:07.064Z,102377.59
2022-10-18T20:13:33.822Z,102376.72
2022-10-18T20:16:00.741Z,102374.00
2022-10-18T20:18:27.186Z,102376.72
2022-10-18T20:20:53.582Z,102387.50
2022-10-18T20:23:20.042Z,102388.47
2022-10-18T20:25:59.862Z,102382.19
2022-10-18T20:28:27.273Z,102383.19
2022-10-18T20:31:04.555Z,102380.75
2022-10-18T20:33:31.586Z,102383.34
2022-10-18T20:36:02.111Z,102380.63
2022-10-18T20:38:30.137Z,102381.31
2022-10-18T20:40:56.563Z,102376.72
2022-10-18T20:43:23.131Z,102374.84
2022-10-18T20:45:55.665Z,102381.19
2022-10-18T20:48:22.109Z,102385.75
2022-10-18T20:50:48.609Z,102384.91
2022-10-18T20:53:14.981Z,102382.03
2022-10-18T20:55:42.759Z,102380.19
2022-10-18T20:58:09.549Z,102381.03
2022-10-18T21:00:36.037Z,102375.41
2022-10-18T21:03:02.861Z,102365.38
2022-10-18T21:05:30.318Z,102363.66
2022-10-18T21:07:57.033Z,102361.78
2022-10-18T21:10:23.945Z,102351.72
2022-10-18T21:12:50.488Z,102354.47
2022-10-18T21:15:16.911Z,102354.47
2022-10-18T21:17:43.533Z,102354.47
2022-10-18T21:20:11.420Z,102352.47
2022-10-18T21:22:37.830Z,102344.44
2022-10-18T21:25:04.746Z,102357.06
2022-10-18T21:27:31.178Z,102367.97
2022-10-18T21:29:57.536Z,102373.53
2022-10-18T21:32:23.927Z,102365.25
2022-10-18T21:34:50.335Z,102371.53
2022-10-18T21:37:16.702Z,102359.78
2022-10-18T21:39:43.361Z,102360.63
2022-10-18T21:42:10.027Z,102360.63
2022-10-18T21:44:36.873Z,102357.91
2022-10-18T21:47:03.331Z,102356.91
2022-10-18T21:49:30.452Z,102359.63
2022-10-18T21:51:57.154Z,102355.03
2022-10-18T21:54:23.511Z,102349.72
2022-10-18T21:56:51.097Z,102341.38
2022-10-18T21:59:17.564Z,102338.81
2022-10-18T22:01:45.304Z,102347.00
2022-10-18T22:04:21.236Z,102354.16
2022-10-18T22:06:48.152Z,102356.19
2022-10-18T22:09:14.816Z,102350.75
2022-10-18T22:11:49.946Z,102343.56
2022-10-18T22:14:16.453Z,102350.75
2022-10-18T22:16:42.902Z,102349.91
2022-10-18T22:19:09.530Z,102357.19
2022-10-18T22:21:36.035Z,102349.91
2022-10-18T22:24:04.716Z,102346.28
2022-10-18T22:26:33.851Z,102340.84
2022-10-18T22:29:01.644Z,102340.84
2022-10-18T22:31:29.959Z,102341.84
2022-10-18T22:33:57.472Z,102337.41
2022-10-18T22:36:24.087Z,102343.72
2022-10-18T22:38:50.686Z,102341.84
2022-10-18T22:41:17.024Z,102341.84
2022-10-18T22:43:43.574Z,102337.25
2022-10-18T22:46:11.441Z,102333.53
2022-10-18T22:48:37.959Z,102335.72
2022-10-18T22:51:05.100Z,102331.41
2022-10-18T22:53:32.013Z,102329.81
2022-10-18T22:55:58.844Z,102327.25
2022-10-18T22:58:25.252Z,102329.69
2022-10-18T23:00:59.604Z,102327.53
2022-10-18T23:03:26.068Z,102322.75
2022-10-18T23:05:52.489Z,102327.38
2022-10-18T23:08:18.835Z,102333.28
2022-10-18T23:10:45.180Z,102328.38
2022-10-18T23:13:11.534Z,102330.25
2022-10-18T23:15:40.899Z,102334.53
2022-10-18T23:18:07.463Z,102332.81
2022-10-18T23:20:33.820Z,102329.06
2022-10-18T23:23:00.214Z,102328.22
2022-10-18T23:25:27.238Z,102331.66
2022-10-18T23:27:53.607Z,102332.66
2022-10-18T23:30:20.039Z,102329.94
2022-10-18T23:32:46.446Z,102332.66
2022-10-18T23:35:12.876Z,102331.97
2022-10-18T23:37:39.208Z,102331.56
2022-10-18T23:40:05.955Z,102329.28
2022-10-18T23:42:32.330Z,102318.91
2022-10-18T23:44:58.706Z,102325.25
2022-10-18T23:47:25.054Z,102325.25
2022-10-18T23:49:51.454Z,102324.94
2022-10-18T23:52:18.035Z,102318.50
2022-10-18T23:57:15.684Z,102314.59
2022-10-18T23:59:42.068Z,102314.47
